sensor_id;sensor_type;location;lat;lon;timestamp;P1;durP1;ratioP1;P2;durP2;ratioP2
31782;SDS011;18351;47.560;9.708;2023-12-29T00:01:54;20.00;;;11.20;;
31782;SDS011;18351;47.560;9.708;2023-12-29T00:04:19;21.13;;;11.98;;
31782;SDS011;18351;47.560;9.708;2023-12-29T00:06:45;26.55;;;14.73;;
31782;SDS011;18351;47.560;9.708;2023-12-29T00:09:11;19.27;;;12.20;;
31782;SDS011;18351;47.560;9.708;2023-12-29T00:11:37;18.35;;;11.75;;
31782;SDS011;18351;47.560;9.708;2023-12-29T00:14:03;26.17;;;14.93;;
31782;SDS011;18351;47.560;9.708;2023-12-29T00:16:28;22.67;;;13.30;;
31782;SDS011;18351;47.560;9.708;2023-12-29T00:18:54;18.63;;;11.68;;
31782;SDS011;18351;47.560;9.708;2023-12-29T00:21:19;19.10;;;12.05;;
31782;SDS011;18351;47.560;9.708;2023-12-29T00:23:46;26.38;;;14.77;;
31782;SDS011;18351;47.560;9.708;2023-12-29T00:26:12;34.50;;;18.17;;
31782;SDS011;18351;47.560;9.708;2023-12-29T00:28:37;21.08;;;12.93;;
31782;SDS011;18351;47.560;9.708;2023-12-29T00:31:05;20.95;;;12.90;;
31782;SDS011;18351;47.560;9.708;2023-12-29T00:33:31;20.35;;;12.32;;
31782;SDS011;18351;47.560;9.708;2023-12-29T00:35:57;43.15;;;21.40;;
31782;SDS011;18351;47.560;9.708;2023-12-29T00:38:24;45.63;;;22.13;;
31782;SDS011;18351;47.560;9.708;2023-12-29T00:40:51;33.85;;;17.70;;
31782;SDS011;18351;47.560;9.708;2023-12-29T00:43:16;18.85;;;11.77;;
31782;SDS011;18351;47.560;9.708;2023-12-29T00:45:42;15.68;;;10.65;;
31782;SDS011;18351;47.560;9.708;2023-12-29T00:48:07;18.15;;;10.98;;
31782;SDS011;18351;47.560;9.708;2023-12-29T00:50:34;18.80;;;10.50;;
31782;SDS011;18351;47.560;9.708;2023-12-29T00:52:59;15.30;;;10.20;;
31782;SDS011;18351;47.560;9.708;2023-12-29T00:55:25;14.70;;;9.60;;
31782;SDS011;18351;47.560;9.708;2023-12-29T00:57:51;14.57;;;8.98;;
31782;SDS011;18351;47.560;9.708;2023-12-29T01:00:16;14.68;;;8.85;;
31782;SDS011;18351;47.560;9.708;2023-12-29T01:02:42;14.65;;;8.68;;
31782;SDS011;18351;47.560;9.708;2023-12-29T01:05:07;13.73;;;8.35;;
31782;SDS011;18351;47.560;9.708;2023-12-29T01:07:33;14.32;;;8.18;;
31782;SDS011;18351;47.560;9.708;2023-12-29T01:09:58;10.63;;;7.15;;
31782;SDS011;18351;47.560;9.708;2023-12-29T01:12:24;14.25;;;7.20;;
31782;SDS011;18351;47.560;9.708;2023-12-29T01:14:50;10.13;;;7.13;;
31782;SDS011;18351;47.560;9.708;2023-12-29T01:17:16;9.98;;;7.47;;
31782;SDS011;18351;47.560;9.708;2023-12-29T01:19:41;7.72;;;5.70;;
31782;SDS011;18351;47.560;9.708;2023-12-29T01:22:07;8.20;;;5.65;;
31782;SDS011;18351;47.560;9.708;2023-12-29T01:24:32;7.88;;;5.70;;
31782;SDS011;18351;47.560;9.708;2023-12-29T01:26:58;9.00;;;6.22;;
31782;SDS011;18351;47.560;9.708;2023-12-29T01:29:23;8.63;;;5.70;;
31782;SDS011;18351;47.560;9.708;2023-12-29T01:31:49;8.70;;;5.50;;
31782;SDS011;18351;47.560;9.708;2023-12-29T01:34:14;7.68;;;5.25;;
31782;SDS011;18351;47.560;9.708;2023-12-29T01:36:40;8.07;;;5.15;;
31782;SDS011;18351;47.560;9.708;2023-12-29T01:39:05;9.60;;;5.72;;
31782;SDS011;18351;47.560;9.708;2023-12-29T01:41:31;10.30;;;6.05;;
31782;SDS011;18351;47.560;9.708;2023-12-29T01:46:25;9.10;;;5.38;;
31782;SDS011;18351;47.560;9.708;2023-12-29T01:48:53;8.43;;;5.80;;
31782;SDS011;18351;47.560;9.708;2023-12-29T01:51:19;8.95;;;6.18;;
31782;SDS011;18351;47.560;9.708;2023-12-29T01:53:47;10.43;;;5.68;;
31782;SDS011;18351;47.560;9.708;2023-12-29T01:56:13;9.90;;;5.82;;
31782;SDS011;18351;47.560;9.708;2023-12-29T01:58:39;9.52;;;5.80;;
31782;SDS011;18351;47.560;9.708;2023-12-29T02:01:04;10.40;;;7.22;;
31782;SDS011;18351;47.560;9.708;2023-12-29T02:03:32;9.98;;;6.18;;
31782;SDS011;18351;47.560;9.708;2023-12-29T02:05:59;8.30;;;5.70;;
31782;SDS011;18351;47.560;9.708;2023-12-29T02:08:24;8.70;;;6.40;;
31782;SDS011;18351;47.560;9.708;2023-12-29T02:10:50;10.63;;;6.35;;
31782;SDS011;18351;47.560;9.708;2023-12-29T02:13:16;7.75;;;5.68;;
31782;SDS011;18351;47.560;9.708;2023-12-29T02:15:41;7.63;;;5.18;;
31782;SDS011;18351;47.560;9.708;2023-12-29T02:18:09;10.30;;;6.30;;
31782;SDS011;18351;47.560;9.708;2023-12-29T02:20:40;9.50;;;5.35;;
31782;SDS011;18351;47.560;9.708;2023-12-29T02:23:06;7.60;;;5.65;;
31782;SDS011;18351;47.560;9.708;2023-12-29T02:25:32;9.60;;;6.63;;
31782;SDS011;18351;47.560;9.708;2023-12-29T02:28:10;7.47;;;5.35;;
31782;SDS011;18351;47.560;9.708;2023-12-29T02:33:39;6.95;;;5.15;;
31782;SDS011;18351;47.560;9.708;2023-12-29T02:36:07;7.53;;;5.47;;
31782;SDS011;18351;47.560;9.708;2023-12-29T02:38:33;10.93;;;5.10;;
31782;SDS011;18351;47.560;9.708;2023-12-29T02:40:59;7.40;;;5.00;;
31782;SDS011;18351;47.560;9.708;2023-12-29T02:43:25;9.38;;;5.07;;
31782;SDS011;18351;47.560;9.708;2023-12-29T02:45:50;8.55;;;4.75;;
31782;SDS011;18351;47.560;9.708;2023-12-29T02:48:16;8.15;;;4.68;;
31782;SDS011;18351;47.560;9.708;2023-12-29T02:50:41;5.78;;;4.55;;
31782;SDS011;18351;47.560;9.708;2023-12-29T02:53:07;5.63;;;4.07;;
31782;SDS011;18351;47.560;9.708;2023-12-29T02:55:33;5.80;;;4.20;;
31782;SDS011;18351;47.560;9.708;2023-12-29T02:57:59;6.38;;;4.30;;
31782;SDS011;18351;47.560;9.708;2023-12-29T03:00:24;6.97;;;3.88;;
31782;SDS011;18351;47.560;9.708;2023-12-29T03:02:50;5.20;;;4.05;;
31782;SDS011;18351;47.560;9.708;2023-12-29T03:05:15;6.13;;;3.75;;
31782;SDS011;18351;47.560;9.708;2023-12-29T03:07:41;7.18;;;4.35;;
31782;SDS011;18351;47.560;9.708;2023-12-29T03:10:07;6.80;;;4.05;;
31782;SDS011;18351;47.560;9.708;2023-12-29T03:12:33;8.50;;;4.10;;
31782;SDS011;18351;47.560;9.708;2023-12-29T03:14:58;6.18;;;4.00;;
31782;SDS011;18351;47.560;9.708;2023-12-29T03:17:24;5.85;;;4.15;;
31782;SDS011;18351;47.560;9.708;2023-12-29T03:19:49;6.18;;;4.25;;
31782;SDS011;18351;47.560;9.708;2023-12-29T03:22:15;6.35;;;4.28;;
31782;SDS011;18351;47.560;9.708;2023-12-29T03:24:41;4.88;;;3.70;;
31782;SDS011;18351;47.560;9.708;2023-12-29T03:27:10;4.88;;;3.42;;
31782;SDS011;18351;47.560;9.708;2023-12-29T03:29:35;4.63;;;3.65;;
31782;SDS011;18351;47.560;9.708;2023-12-29T03:32:01;4.93;;;3.50;;
31782;SDS011;18351;47.560;9.708;2023-12-29T03:34:27;5.85;;;3.97;;
31782;SDS011;18351;47.560;9.708;2023-12-29T03:36:52;10.48;;;3.95;;
31782;SDS011;18351;47.560;9.708;2023-12-29T03:39:18;6.25;;;4.13;;
31782;SDS011;18351;47.560;9.708;2023-12-29T03:41:44;5.07;;;3.42;;
31782;SDS011;18351;47.560;9.708;2023-12-29T03:44:09;4.75;;;3.65;;
31782;SDS011;18351;47.560;9.708;2023-12-29T03:46:35;5.50;;;3.35;;
31782;SDS011;18351;47.560;9.708;2023-12-29T03:49:01;6.70;;;3.20;;
31782;SDS011;18351;47.560;9.708;2023-12-29T03:51:26;4.05;;;3.05;;
31782;SDS011;18351;47.560;9.708;2023-12-29T03:53:52;4.47;;;3.10;;
31782;SDS011;18351;47.560;9.708;2023-12-29T03:56:18;4.47;;;3.35;;
31782;SDS011;18351;47.560;9.708;2023-12-29T03:58:46;4.10;;;2.97;;
31782;SDS011;18351;47.560;9.708;2023-12-29T04:03:38;4.15;;;3.00;;
31782;SDS011;18351;47.560;9.708;2023-12-29T04:06:04;5.28;;;3.42;;
31782;SDS011;18351;47.560;9.708;2023-12-29T04:08:31;5.10;;;3.03;;
31782;SDS011;18351;47.560;9.708;2023-12-29T04:10:57;6.40;;;3.20;;
31782;SDS011;18351;47.560;9.708;2023-12-29T04:13:22;4.65;;;3.03;;
31782;SDS011;18351;47.560;9.708;2023-12-29T04:15:48;5.28;;;3.17;;
31782;SDS011;18351;47.560;9.708;2023-12-29T04:18:13;4.03;;;3.20;;
31782;SDS011;18351;47.560;9.708;2023-12-29T04:20:40;4.40;;;3.38;;
31782;SDS011;18351;47.560;9.708;2023-12-29T04:23:06;5.72;;;3.45;;
31782;SDS011;18351;47.560;9.708;2023-12-29T04:25:32;5.72;;;4.00;;
31782;SDS011;18351;47.560;9.708;2023-12-29T04:27:58;7.22;;;3.83;;
31782;SDS011;18351;47.560;9.708;2023-12-29T04:30:24;5.57;;;3.38;;
31782;SDS011;18351;47.560;9.708;2023-12-29T04:32:49;4.40;;;3.30;;
31782;SDS011;18351;47.560;9.708;2023-12-29T04:35:15;5.10;;;3.42;;
31782;SDS011;18351;47.560;9.708;2023-12-29T04:37:42;5.10;;;3.60;;
31782;SDS011;18351;47.560;9.708;2023-12-29T04:40:09;5.05;;;3.33;;
31782;SDS011;18351;47.560;9.708;2023-12-29T04:42:35;5.53;;;3.33;;
31782;SDS011;18351;47.560;9.708;2023-12-29T04:45:00;12.35;;;3.45;;
31782;SDS011;18351;47.560;9.708;2023-12-29T04:47:26;4.90;;;2.58;;
31782;SDS011;18351;47.560;9.708;2023-12-29T04:49:51;8.80;;;3.50;;
31782;SDS011;18351;47.560;9.708;2023-12-29T04:52:17;5.18;;;3.53;;
31782;SDS011;18351;47.560;9.708;2023-12-29T04:54:43;6.18;;;4.20;;
31782;SDS011;18351;47.560;9.708;2023-12-29T04:57:08;5.05;;;3.63;;
31782;SDS011;18351;47.560;9.708;2023-12-29T04:59:34;7.05;;;4.03;;
31782;SDS011;18351;47.560;9.708;2023-12-29T05:01:59;5.60;;;3.78;;
31782;SDS011;18351;47.560;9.708;2023-12-29T05:04:25;6.45;;;4.07;;
31782;SDS011;18351;47.560;9.708;2023-12-29T05:06:50;7.38;;;4.28;;
31782;SDS011;18351;47.560;9.708;2023-12-29T05:09:16;7.53;;;4.35;;
31782;SDS011;18351;47.560;9.708;2023-12-29T05:11:41;5.57;;;4.10;;
31782;SDS011;18351;47.560;9.708;2023-12-29T05:14:07;5.35;;;3.45;;
31782;SDS011;18351;47.560;9.708;2023-12-29T05:16:33;6.60;;;3.92;;
31782;SDS011;18351;47.560;9.708;2023-12-29T05:18:58;4.85;;;3.70;;
31782;SDS011;18351;47.560;9.708;2023-12-29T05:21:24;5.95;;;3.65;;
31782;SDS011;18351;47.560;9.708;2023-12-29T05:23:51;6.88;;;4.32;;
31782;SDS011;18351;47.560;9.708;2023-12-29T05:26:17;5.35;;;3.72;;
31782;SDS011;18351;47.560;9.708;2023-12-29T05:28:42;4.97;;;3.70;;
31782;SDS011;18351;47.560;9.708;2023-12-29T05:31:08;11.10;;;4.47;;
31782;SDS011;18351;47.560;9.708;2023-12-29T05:33:34;6.90;;;3.85;;
31782;SDS011;18351;47.560;9.708;2023-12-29T05:36:05;8.13;;;4.00;;
31782;SDS011;18351;47.560;9.708;2023-12-29T05:38:33;5.85;;;4.05;;
31782;SDS011;18351;47.560;9.708;2023-12-29T05:40:59;4.75;;;3.83;;
31782;SDS011;18351;47.560;9.708;2023-12-29T05:43:26;6.35;;;3.97;;
31782;SDS011;18351;47.560;9.708;2023-12-29T05:45:52;5.38;;;3.40;;
31782;SDS011;18351;47.560;9.708;2023-12-29T05:48:17;5.05;;;3.60;;
31782;SDS011;18351;47.560;9.708;2023-12-29T05:50:43;6.22;;;3.58;;
31782;SDS011;18351;47.560;9.708;2023-12-29T05:53:08;4.93;;;3.22;;
31782;SDS011;18351;47.560;9.708;2023-12-29T05:55:34;5.03;;;3.10;;
31782;SDS011;18351;47.560;9.708;2023-12-29T05:57:59;6.20;;;3.80;;
31782;SDS011;18351;47.560;9.708;2023-12-29T06:00:25;8.73;;;3.88;;
31782;SDS011;18351;47.560;9.708;2023-12-29T06:02:50;4.63;;;3.38;;
31782;SDS011;18351;47.560;9.708;2023-12-29T06:05:16;6.50;;;4.10;;
31782;SDS011;18351;47.560;9.708;2023-12-29T06:07:42;7.38;;;3.97;;
31782;SDS011;18351;47.560;9.708;2023-12-29T06:10:07;5.55;;;3.20;;
31782;SDS011;18351;47.560;9.708;2023-12-29T06:12:34;4.95;;;3.40;;
31782;SDS011;18351;47.560;9.708;2023-12-29T06:15:00;4.13;;;2.92;;
31782;SDS011;18351;47.560;9.708;2023-12-29T06:17:25;5.60;;;3.03;;
31782;SDS011;18351;47.560;9.708;2023-12-29T06:19:51;6.72;;;4.00;;
31782;SDS011;18351;47.560;9.708;2023-12-29T06:22:17;5.18;;;3.83;;
31782;SDS011;18351;47.560;9.708;2023-12-29T06:24:43;6.15;;;4.07;;
31782;SDS011;18351;47.560;9.708;2023-12-29T06:27:09;6.20;;;4.10;;
31782;SDS011;18351;47.560;9.708;2023-12-29T06:29:35;6.78;;;3.85;;
31782;SDS011;18351;47.560;9.708;2023-12-29T06:32:01;5.97;;;4.10;;
31782;SDS011;18351;47.560;9.708;2023-12-29T06:34:30;7.53;;;4.15;;
31782;SDS011;18351;47.560;9.708;2023-12-29T06:36:55;4.43;;;3.50;;
31782;SDS011;18351;47.560;9.708;2023-12-29T06:39:21;3.80;;;3.35;;
31782;SDS011;18351;47.560;9.708;2023-12-29T06:41:47;8.25;;;3.80;;
31782;SDS011;18351;47.560;9.708;2023-12-29T06:44:13;9.07;;;3.35;;
31782;SDS011;18351;47.560;9.708;2023-12-29T06:46:38;4.53;;;3.28;;
31782;SDS011;18351;47.560;9.708;2023-12-29T06:49:06;4.05;;;3.30;;
31782;SDS011;18351;47.560;9.708;2023-12-29T06:51:32;5.72;;;4.25;;
31782;SDS011;18351;47.560;9.708;2023-12-29T06:53:59;5.20;;;3.47;;
31782;SDS011;18351;47.560;9.708;2023-12-29T06:56:25;9.13;;;3.63;;
31782;SDS011;18351;47.560;9.708;2023-12-29T06:58:51;5.30;;;3.28;;
31782;SDS011;18351;47.560;9.708;2023-12-29T07:01:16;4.07;;;3.25;;
31782;SDS011;18351;47.560;9.708;2023-12-29T07:03:42;6.53;;;4.30;;
31782;SDS011;18351;47.560;9.708;2023-12-29T07:06:08;5.53;;;3.88;;
31782;SDS011;18351;47.560;9.708;2023-12-29T07:08:34;7.15;;;4.10;;
31782;SDS011;18351;47.560;9.708;2023-12-29T07:11:00;8.60;;;4.40;;
31782;SDS011;18351;47.560;9.708;2023-12-29T07:13:25;9.55;;;5.57;;
31782;SDS011;18351;47.560;9.708;2023-12-29T07:15:51;10.20;;;6.43;;
31782;SDS011;18351;47.560;9.708;2023-12-29T07:18:16;8.75;;;6.10;;
31782;SDS011;18351;47.560;9.708;2023-12-29T07:20:42;5.47;;;4.35;;
31782;SDS011;18351;47.560;9.708;2023-12-29T07:23:08;7.70;;;4.95;;
31782;SDS011;18351;47.560;9.708;2023-12-29T07:25:33;8.60;;;4.70;;
31782;SDS011;18351;47.560;9.708;2023-12-29T07:27:59;5.55;;;4.13;;
31782;SDS011;18351;47.560;9.708;2023-12-29T07:30:24;7.85;;;4.38;;
31782;SDS011;18351;47.560;9.708;2023-12-29T07:32:51;7.22;;;3.53;;
31782;SDS011;18351;47.560;9.708;2023-12-29T07:35:16;5.28;;;3.67;;
31782;SDS011;18351;47.560;9.708;2023-12-29T07:37:44;7.00;;;3.53;;
31782;SDS011;18351;47.560;9.708;2023-12-29T07:40:10;5.97;;;3.47;;
31782;SDS011;18351;47.560;9.708;2023-12-29T07:42:37;4.63;;;3.30;;
31782;SDS011;18351;47.560;9.708;2023-12-29T07:45:04;5.53;;;3.30;;
31782;SDS011;18351;47.560;9.708;2023-12-29T07:47:30;4.40;;;3.10;;
31782;SDS011;18351;47.560;9.708;2023-12-29T07:49:56;5.07;;;3.17;;
31782;SDS011;18351;47.560;9.708;2023-12-29T07:52:22;4.72;;;3.17;;
31782;SDS011;18351;47.560;9.708;2023-12-29T07:54:47;5.30;;;3.15;;
31782;SDS011;18351;47.560;9.708;2023-12-29T07:57:14;4.50;;;3.40;;
31782;SDS011;18351;47.560;9.708;2023-12-29T07:59:39;3.72;;;3.00;;
31782;SDS011;18351;47.560;9.708;2023-12-29T08:02:05;4.40;;;3.05;;
31782;SDS011;18351;47.560;9.708;2023-12-29T08:04:31;4.43;;;2.92;;
31782;SDS011;18351;47.560;9.708;2023-12-29T08:06:57;4.93;;;3.13;;
31782;SDS011;18351;47.560;9.708;2023-12-29T08:09:22;5.18;;;3.38;;
31782;SDS011;18351;47.560;9.708;2023-12-29T08:11:48;4.32;;;3.20;;
31782;SDS011;18351;47.560;9.708;2023-12-29T08:14:15;6.35;;;3.75;;
31782;SDS011;18351;47.560;9.708;2023-12-29T08:16:40;4.65;;;3.00;;
31782;SDS011;18351;47.560;9.708;2023-12-29T08:19:06;4.85;;;3.45;;
31782;SDS011;18351;47.560;9.708;2023-12-29T08:21:35;5.03;;;3.13;;
31782;SDS011;18351;47.560;9.708;2023-12-29T08:24:01;3.72;;;3.13;;
31782;SDS011;18351;47.560;9.708;2023-12-29T08:26:27;8.40;;;4.40;;
31782;SDS011;18351;47.560;9.708;2023-12-29T08:28:52;7.32;;;4.53;;
31782;SDS011;18351;47.560;9.708;2023-12-29T08:31:18;6.97;;;4.68;;
31782;SDS011;18351;47.560;9.708;2023-12-29T08:33:44;6.30;;;3.95;;
31782;SDS011;18351;47.560;9.708;2023-12-29T08:36:11;5.70;;;4.10;;
31782;SDS011;18351;47.560;9.708;2023-12-29T08:38:37;5.53;;;3.97;;
31782;SDS011;18351;47.560;9.708;2023-12-29T08:41:03;7.88;;;3.58;;
31782;SDS011;18351;47.560;9.708;2023-12-29T08:43:29;5.68;;;3.33;;
31782;SDS011;18351;47.560;9.708;2023-12-29T08:45:55;7.88;;;3.67;;
31782;SDS011;18351;47.560;9.708;2023-12-29T08:48:21;4.45;;;2.63;;
31782;SDS011;18351;47.560;9.708;2023-12-29T08:50:47;5.40;;;3.70;;
31782;SDS011;18351;47.560;9.708;2023-12-29T08:53:12;4.28;;;3.22;;
31782;SDS011;18351;47.560;9.708;2023-12-29T08:55:38;7.88;;;3.85;;
31782;SDS011;18351;47.560;9.708;2023-12-29T08:58:04;5.88;;;3.72;;
31782;SDS011;18351;47.560;9.708;2023-12-29T09:00:30;8.25;;;3.83;;
31782;SDS011;18351;47.560;9.708;2023-12-29T09:02:56;4.40;;;3.47;;
31782;SDS011;18351;47.560;9.708;2023-12-29T09:05:22;7.57;;;4.55;;
31782;SDS011;18351;47.560;9.708;2023-12-29T09:07:47;7.80;;;4.22;;
31782;SDS011;18351;47.560;9.708;2023-12-29T09:10:13;6.30;;;3.63;;
31782;SDS011;18351;47.560;9.708;2023-12-29T09:12:39;4.22;;;3.40;;
31782;SDS011;18351;47.560;9.708;2023-12-29T09:15:06;6.10;;;3.85;;
31782;SDS011;18351;47.560;9.708;2023-12-29T09:17:32;7.85;;;4.20;;
31782;SDS011;18351;47.560;9.708;2023-12-29T09:19:58;8.50;;;3.58;;
31782;SDS011;18351;47.560;9.708;2023-12-29T09:22:23;4.25;;;3.53;;
31782;SDS011;18351;47.560;9.708;2023-12-29T09:24:49;6.07;;;3.70;;
31782;SDS011;18351;47.560;9.708;2023-12-29T09:27:14;5.80;;;3.92;;
31782;SDS011;18351;47.560;9.708;2023-12-29T09:29:40;7.63;;;4.30;;
31782;SDS011;18351;47.560;9.708;2023-12-29T09:32:06;6.78;;;3.65;;
31782;SDS011;18351;47.560;9.708;2023-12-29T09:34:32;5.35;;;3.97;;
31782;SDS011;18351;47.560;9.708;2023-12-29T09:36:57;11.65;;;4.57;;
31782;SDS011;18351;47.560;9.708;2023-12-29T09:39:23;4.38;;;3.20;;
31782;SDS011;18351;47.560;9.708;2023-12-29T09:41:51;7.40;;;4.05;;
31782;SDS011;18351;47.560;9.708;2023-12-29T09:44:18;6.40;;;3.55;;
31782;SDS011;18351;47.560;9.708;2023-12-29T09:46:48;4.57;;;3.15;;
31782;SDS011;18351;47.560;9.708;2023-12-29T09:49:16;6.47;;;3.05;;
31782;SDS011;18351;47.560;9.708;2023-12-29T09:51:44;6.75;;;3.30;;
31782;SDS011;18351;47.560;9.708;2023-12-29T09:54:10;4.63;;;3.63;;
31782;SDS011;18351;47.560;9.708;2023-12-29T09:56:36;5.55;;;3.20;;
31782;SDS011;18351;47.560;9.708;2023-12-29T09:59:03;6.07;;;3.70;;
31782;SDS011;18351;47.560;9.708;2023-12-29T10:01:29;6.20;;;3.60;;
31782;SDS011;18351;47.560;9.708;2023-12-29T10:03:56;5.28;;;3.35;;
31782;SDS011;18351;47.560;9.708;2023-12-29T10:06:25;6.07;;;3.55;;
31782;SDS011;18351;47.560;9.708;2023-12-29T10:08:51;6.60;;;3.70;;
31782;SDS011;18351;47.560;9.708;2023-12-29T10:11:18;5.72;;;4.00;;
31782;SDS011;18351;47.560;9.708;2023-12-29T10:13:50;7.03;;;4.18;;
31782;SDS011;18351;47.560;9.708;2023-12-29T10:16:22;7.90;;;4.85;;
31782;SDS011;18351;47.560;9.708;2023-12-29T10:21:33;5.32;;;3.70;;
31782;SDS011;18351;47.560;9.708;2023-12-29T10:24:12;5.10;;;3.67;;
31782;SDS011;18351;47.560;9.708;2023-12-29T10:26:43;6.22;;;3.97;;
31782;SDS011;18351;47.560;9.708;2023-12-29T10:29:10;4.90;;;2.97;;
31782;SDS011;18351;47.560;9.708;2023-12-29T10:31:36;3.63;;;2.60;;
31782;SDS011;18351;47.560;9.708;2023-12-29T10:34:17;4.82;;;3.38;;
31782;SDS011;18351;47.560;9.708;2023-12-29T10:36:53;5.15;;;3.40;;
31782;SDS011;18351;47.560;9.708;2023-12-29T10:39:28;4.90;;;2.50;;
31782;SDS011;18351;47.560;9.708;2023-12-29T10:42:02;4.97;;;2.60;;
31782;SDS011;18351;47.560;9.708;2023-12-29T10:44:30;4.68;;;2.60;;
31782;SDS011;18351;47.560;9.708;2023-12-29T10:46:55;7.25;;;2.47;;
31782;SDS011;18351;47.560;9.708;2023-12-29T10:49:21;7.13;;;2.72;;
31782;SDS011;18351;47.560;9.708;2023-12-29T10:51:48;3.75;;;2.60;;
31782;SDS011;18351;47.560;9.708;2023-12-29T10:54:20;4.25;;;2.60;;
31782;SDS011;18351;47.560;9.708;2023-12-29T10:56:50;4.82;;;3.13;;
31782;SDS011;18351;47.560;9.708;2023-12-29T10:59:26;5.10;;;3.22;;
31782;SDS011;18351;47.560;9.708;2023-12-29T11:01:52;6.18;;;4.03;;
31782;SDS011;18351;47.560;9.708;2023-12-29T11:04:21;5.57;;;3.75;;
31782;SDS011;18351;47.560;9.708;2023-12-29T11:06:47;5.22;;;3.58;;
31782;SDS011;18351;47.560;9.708;2023-12-29T11:09:25;9.00;;;5.43;;
31782;SDS011;18351;47.560;9.708;2023-12-29T11:11:53;9.13;;;4.40;;
31782;SDS011;18351;47.560;9.708;2023-12-29T11:14:21;8.60;;;4.18;;
31782;SDS011;18351;47.560;9.708;2023-12-29T11:16:47;8.13;;;4.03;;
31782;SDS011;18351;47.560;9.708;2023-12-29T11:19:14;9.20;;;5.43;;
31782;SDS011;18351;47.560;9.708;2023-12-29T11:21:40;6.15;;;4.05;;
31782;SDS011;18351;47.560;9.708;2023-12-29T11:24:07;6.03;;;3.70;;
31782;SDS011;18351;47.560;9.708;2023-12-29T11:26:33;6.22;;;3.50;;
31782;SDS011;18351;47.560;9.708;2023-12-29T11:28:59;5.57;;;3.65;;
31782;SDS011;18351;47.560;9.708;2023-12-29T11:31:26;6.28;;;3.78;;
31782;SDS011;18351;47.560;9.708;2023-12-29T11:34:00;5.68;;;3.63;;
31782;SDS011;18351;47.560;9.708;2023-12-29T11:36:32;6.45;;;3.42;;
31782;SDS011;18351;47.560;9.708;2023-12-29T11:42:13;4.35;;;3.38;;
31782;SDS011;18351;47.560;9.708;2023-12-29T11:44:44;9.40;;;3.30;;
31782;SDS011;18351;47.560;9.708;2023-12-29T11:50:04;7.22;;;3.55;;
31782;SDS011;18351;47.560;9.708;2023-12-29T11:52:37;5.40;;;2.80;;
31782;SDS011;18351;47.560;9.708;2023-12-29T11:55:08;4.13;;;3.15;;
31782;SDS011;18351;47.560;9.708;2023-12-29T11:57:41;5.07;;;3.35;;
31782;SDS011;18351;47.560;9.708;2023-12-29T12:00:07;4.63;;;3.20;;
31782;SDS011;18351;47.560;9.708;2023-12-29T12:02:33;5.78;;;3.22;;
31782;SDS011;18351;47.560;9.708;2023-12-29T12:04:59;4.45;;;3.13;;
31782;SDS011;18351;47.560;9.708;2023-12-29T12:09:50;5.93;;;2.70;;
31782;SDS011;18351;47.560;9.708;2023-12-29T12:15:30;4.68;;;3.08;;
31782;SDS011;18351;47.560;9.708;2023-12-29T12:17:57;4.60;;;3.25;;
31782;SDS011;18351;47.560;9.708;2023-12-29T12:20:24;5.03;;;3.17;;
31782;SDS011;18351;47.560;9.708;2023-12-29T12:23:24;7.55;;;3.60;;
31782;SDS011;18351;47.560;9.708;2023-12-29T12:25:42;5.28;;;3.50;;
31782;SDS011;18351;47.560;9.708;2023-12-29T12:28:10;6.25;;;3.78;;
31782;SDS011;18351;47.560;9.708;2023-12-29T12:30:39;5.22;;;3.67;;
31782;SDS011;18351;47.560;9.708;2023-12-29T12:33:05;6.35;;;4.07;;
31782;SDS011;18351;47.560;9.708;2023-12-29T12:35:30;4.85;;;3.40;;
31782;SDS011;18351;47.560;9.708;2023-12-29T12:38:15;5.50;;;3.60;;
31782;SDS011;18351;47.560;9.708;2023-12-29T12:40:49;6.28;;;3.55;;
31782;SDS011;18351;47.560;9.708;2023-12-29T12:43:14;6.47;;;3.42;;
31782;SDS011;18351;47.560;9.708;2023-12-29T12:46:02;6.43;;;4.15;;
31782;SDS011;18351;47.560;9.708;2023-12-29T12:48:35;6.38;;;4.18;;
31782;SDS011;18351;47.560;9.708;2023-12-29T12:51:06;10.98;;;4.38;;
31782;SDS011;18351;47.560;9.708;2023-12-29T12:53:32;9.18;;;4.65;;
31782;SDS011;18351;47.560;9.708;2023-12-29T12:55:57;8.00;;;4.13;;
31782;SDS011;18351;47.560;9.708;2023-12-29T12:58:23;8.63;;;4.63;;
31782;SDS011;18351;47.560;9.708;2023-12-29T13:00:50;9.57;;;4.18;;
31782;SDS011;18351;47.560;9.708;2023-12-29T13:03:16;8.88;;;4.25;;
31782;SDS011;18351;47.560;9.708;2023-12-29T13:05:42;5.95;;;4.18;;
31782;SDS011;18351;47.560;9.708;2023-12-29T13:08:08;6.10;;;3.30;;
31782;SDS011;18351;47.560;9.708;2023-12-29T13:10:40;10.57;;;4.60;;
31782;SDS011;18351;47.560;9.708;2023-12-29T13:13:07;7.20;;;4.45;;
31782;SDS011;18351;47.560;9.708;2023-12-29T13:15:33;3.80;;;3.05;;
31782;SDS011;18351;47.560;9.708;2023-12-29T13:17:59;10.40;;;4.03;;
31782;SDS011;18351;47.560;9.708;2023-12-29T13:20:24;6.70;;;3.78;;
31782;SDS011;18351;47.560;9.708;2023-12-29T13:22:50;7.70;;;3.58;;
31782;SDS011;18351;47.560;9.708;2023-12-29T13:25:20;5.45;;;3.47;;
31782;SDS011;18351;47.560;9.708;2023-12-29T13:27:49;4.72;;;3.80;;
31782;SDS011;18351;47.560;9.708;2023-12-29T13:30:15;3.83;;;3.22;;
31782;SDS011;18351;47.560;9.708;2023-12-29T13:32:43;6.65;;;4.03;;
31782;SDS011;18351;47.560;9.708;2023-12-29T13:35:19;5.78;;;3.75;;
31782;SDS011;18351;47.560;9.708;2023-12-29T13:42:55;7.00;;;4.03;;
31782;SDS011;18351;47.560;9.708;2023-12-29T13:45:24;5.35;;;3.80;;
31782;SDS011;18351;47.560;9.708;2023-12-29T13:47:51;5.53;;;3.67;;
31782;SDS011;18351;47.560;9.708;2023-12-29T13:50:18;5.75;;;3.15;;
31782;SDS011;18351;47.560;9.708;2023-12-29T13:52:44;6.82;;;3.45;;
31782;SDS011;18351;47.560;9.708;2023-12-29T13:55:10;5.45;;;3.30;;
31782;SDS011;18351;47.560;9.708;2023-12-29T13:57:35;6.53;;;3.97;;
31782;SDS011;18351;47.560;9.708;2023-12-29T14:00:17;7.55;;;4.97;;
31782;SDS011;18351;47.560;9.708;2023-12-29T14:02:47;9.32;;;5.38;;
31782;SDS011;18351;47.560;9.708;2023-12-29T14:05:32;10.20;;;5.07;;
31782;SDS011;18351;47.560;9.708;2023-12-29T14:10:32;6.40;;;4.97;;
31782;SDS011;18351;47.560;9.708;2023-12-29T14:13:07;10.93;;;5.18;;
31782;SDS011;18351;47.560;9.708;2023-12-29T14:15:37;8.45;;;5.25;;
31782;SDS011;18351;47.560;9.708;2023-12-29T14:18:09;6.47;;;4.97;;
31782;SDS011;18351;47.560;9.708;2023-12-29T14:20:52;9.98;;;5.35;;
31782;SDS011;18351;47.560;9.708;2023-12-29T14:23:18;8.20;;;5.40;;
31782;SDS011;18351;47.560;9.708;2023-12-29T14:25:44;8.43;;;4.80;;
31782;SDS011;18351;47.560;9.708;2023-12-29T14:28:15;8.50;;;4.35;;
31782;SDS011;18351;47.560;9.708;2023-12-29T14:30:41;6.25;;;4.07;;
31782;SDS011;18351;47.560;9.708;2023-12-29T14:33:07;7.72;;;4.78;;
31782;SDS011;18351;47.560;9.708;2023-12-29T14:35:32;5.72;;;3.95;;
31782;SDS011;18351;47.560;9.708;2023-12-29T14:37:58;7.88;;;4.90;;
31782;SDS011;18351;47.560;9.708;2023-12-29T14:40:24;6.50;;;3.85;;
31782;SDS011;18351;47.560;9.708;2023-12-29T14:42:49;4.95;;;3.63;;
31782;SDS011;18351;47.560;9.708;2023-12-29T14:45:15;5.57;;;4.05;;
31782;SDS011;18351;47.560;9.708;2023-12-29T14:47:40;7.63;;;4.35;;
31782;SDS011;18351;47.560;9.708;2023-12-29T14:50:06;7.28;;;4.22;;
31782;SDS011;18351;47.560;9.708;2023-12-29T14:52:32;6.78;;;4.97;;
31782;SDS011;18351;47.560;9.708;2023-12-29T14:54:57;9.27;;;5.20;;
31782;SDS011;18351;47.560;9.708;2023-12-29T14:57:23;6.93;;;4.55;;
31782;SDS011;18351;47.560;9.708;2023-12-29T14:59:49;10.05;;;5.18;;
31782;SDS011;18351;47.560;9.708;2023-12-29T15:02:14;7.95;;;4.53;;
31782;SDS011;18351;47.560;9.708;2023-12-29T15:04:40;7.22;;;4.47;;
31782;SDS011;18351;47.560;9.708;2023-12-29T15:07:05;8.35;;;4.18;;
31782;SDS011;18351;47.560;9.708;2023-12-29T15:09:31;6.03;;;4.03;;
31782;SDS011;18351;47.560;9.708;2023-12-29T15:11:58;8.77;;;3.95;;
31782;SDS011;18351;47.560;9.708;2023-12-29T15:14:24;8.05;;;4.25;;